Time;durP1;ratioP1;P1;durP2;ratioP2;P2;SDS_P1;SDS_P2;PMS_P1;PMS_P2;Temp;Humidity;BMP_temperature;BMP_pressure;BME280_temperature;BME280_humidity;BME280_pressure;Samples;Min_cycle;Max_cycle;Signal;HPM_P1;HPM_P2
2020/12/07 00:02:04;;;;;;;67.95;29.50;;;;;;;5.62;88.79;98544.53;8610697;33;20321;-72
2020/12/07 00:07:07;;;;;;;68.55;28.02;;;;;;;5.65;88.95;98531.06;8609243;33;20479;-73
2020/12/07 00:12:10;;;;;;;74.45;29.55;;;;;;;5.64;88.54;98559.38;8607256;33;20179;-72
2020/12/07 00:17:12;;;;;;;69.13;28.20;;;;;;;5.56;88.51;98535.25;8603954;33;20255;-72
2020/12/07 00:22:21;;;;;;;63.15;26.83;;;;;;;5.62;88.57;98545.38;8603026;33;20428;-72
2020/12/07 00:27:26;;;;;;;62.97;27.13;;;;;;;5.69;88.63;98543.13;8604975;33;20484;-72
2020/12/07 00:32:33;;;;;;;68.78;27.52;;;;;;;5.65;88.61;98546.97;8604719;33;20450;-72
2020/12/07 00:37:36;;;;;;;69.63;26.73;;;;;;;5.63;88.47;98531.19;8603889;33;21961;-72
2020/12/07 00:42:39;;;;;;;66.65;26.80;;;;;;;5.68;88.71;98520.25;8603272;33;20568;-73
2020/12/07 00:47:41;;;;;;;67.93;26.95;;;;;;;5.72;88.78;98525.19;8601840;33;20195;-73
2020/12/07 00:52:44;;;;;;;60.10;26.52;;;;;;;5.77;88.82;98522.19;8599611;33;20179;-73
2020/12/07 00:57:48;;;;;;;62.33;24.88;;;;;;;5.73;88.99;98533.97;8573642;33;20458;-72
2020/12/07 01:02:50;;;;;;;61.65;25.17;;;;;;;5.68;88.50;98544.94;8577384;33;20240;-72
2020/12/07 01:07:53;;;;;;;55.60;23.52;;;;;;;5.61;88.61;98534.91;8577015;33;20224;-74
2020/12/07 01:12:57;;;;;;;57.13;22.48;;;;;;;5.56;88.53;98535.25;8598637;33;20167;-72
2020/12/07 01:18:00;;;;;;;54.72;26.13;;;;;;;5.54;88.42;98518.66;8591903;33;20502;-73
2020/12/07 01:23:04;;;;;;;59.55;24.92;;;;;;;5.53;88.85;98501.91;8591428;33;20368;-73
2020/12/07 01:28:08;;;;;;;66.45;24.17;;;;;;;5.61;88.66;98514.56;8566265;33;20423;-73
2020/12/07 01:33:10;;;;;;;57.28;24.00;;;;;;;5.66;88.99;98520.38;8565366;33;20143;-73
2020/12/07 01:38:13;;;;;;;57.28;23.85;;;;;;;5.64;88.64;98497.59;8565435;33;20443;-73
2020/12/07 01:43:16;;;;;;;58.20;24.52;;;;;;;5.63;88.34;98490.63;8565826;33;20173;-73
2020/12/07 01:48:19;;;;;;;56.22;22.70;;;;;;;5.63;88.79;98506.50;8564528;33;20241;-73
2020/12/07 01:53:23;;;;;;;59.03;23.70;;;;;;;5.64;88.63;98524.09;8591104;33;21056;-71
2020/12/07 01:58:26;;;;;;;52.75;22.20;;;;;;;5.58;88.67;98504.22;8589275;33;20190;-73
2020/12/07 02:03:29;;;;;;;48.00;20.45;;;;;;;5.49;88.61;98500.47;8565819;33;20433;-73
2020/12/07 02:08:31;;;;;;;49.60;19.15;;;;;;;5.41;88.79;98494.91;8556695;33;20209;-74
2020/12/07 02:13:43;;;;;;;38.97;18.20;;;;;;;5.45;88.95;98490.19;8548134;33;20216;-74
2020/12/07 02:18:47;;;;;;;37.00;16.70;;;;;;;5.46;88.93;98497.22;8548718;33;21111;-74
2020/12/07 02:23:50;;;;;;;44.00;18.33;;;;;;;5.50;89.02;98485.41;8578729;33;20486;-73
2020/12/07 02:28:56;;;;;;;39.03;16.38;;;;;;;5.45;88.71;98483.09;8525478;33;20246;-72
2020/12/07 02:34:05;;;;;;;42.42;17.30;;;;;;;5.46;88.86;98484.81;8560580;33;20186;-73
2020/12/07 02:39:11;;;;;;;39.40;16.50;;;;;;;5.48;88.80;98474.06;8559859;33;20459;-73
2020/12/07 02:44:23;;;;;;;31.92;15.35;;;;;;;5.49;88.76;98481.91;8546235;33;20308;-73
2020/12/07 02:49:31;;;;;;;42.72;16.63;;;;;;;5.44;88.36;98462.03;8545700;33;20148;-73
2020/12/07 02:54:38;;;;;;;39.88;16.67;;;;;;;5.44;88.72;98451.44;8551894;33;20416;-73
2020/12/07 02:59:47;;;;;;;40.50;15.52;;;;;;;5.48;88.63;98451.06;8595601;33;20156;-73
2020/12/07 03:04:49;;;;;;;29.25;14.07;;;;;;;5.39;88.30;98456.25;8562654;33;20496;-73
2020/12/07 03:09:53;;;;;;;28.15;11.63;;;;;;;5.32;88.19;98453.22;8619139;33;20930;-71
2020/12/07 03:14:55;;;;;;;29.55;13.05;;;;;;;5.30;88.77;98441.91;8626139;33;20135;-73
2020/12/07 03:19:59;;;;;;;25.85;12.02;;;;;;;5.26;88.75;98449.22;8631266;33;20426;-73
2020/12/07 03:25:03;;;;;;;24.02;11.70;;;;;;;5.22;88.53;98447.78;8659836;33;20760;-73
2020/12/07 03:30:07;;;;;;;23.70;10.80;;;;;;;5.22;88.59;98446.94;8635289;33;20162;-73
2020/12/07 03:35:10;;;;;;;20.50;11.15;;;;;;;5.20;88.22;98444.41;8634713;33;20439;-73
2020/12/07 03:40:14;;;;;;;22.83;10.50;;;;;;;5.10;88.09;98440.75;8604779;33;20473;-73
2020/12/07 03:45:21;;;;;;;24.77;11.50;;;;;;;5.01;88.43;98434.34;8570714;33;20166;-72
2020/12/07 03:50:26;;;;;;;22.50;10.47;;;;;;;5.06;88.36;98444.59;8569784;33;20190;-73
2020/12/07 03:55:29;;;;;;;22.52;10.38;;;;;;;5.08;88.42;98438.25;8577901;33;20183;-72
2020/12/07 04:00:37;;;;;;;22.55;10.32;;;;;;;5.06;88.11;98431.38;8569900;33;20139;-73
2020/12/07 04:05:45;;;;;;;23.20;11.00;;;;;;;4.97;88.31;98440.84;8575172;33;20420;-73
2020/12/07 04:10:52;;;;;;;22.67;9.60;;;;;;;5.01;88.16;98441.47;8582971;33;20519;-73
2020/12/07 04:15:54;;;;;;;22.73;10.47;;;;;;;4.93;88.51;98439.38;8604779;33;20418;-73
2020/12/07 04:21:03;;;;;;;19.57;9.83;;;;;;;4.97;88.37;98442.66;8604477;33;20555;-73
2020/12/07 04:26:06;;;;;;;18.87;9.93;;;;;;;4.98;88.41;98441.69;8602206;33;20274;-73
2020/12/07 04:31:09;;;;;;;17.63;8.87;;;;;;;4.98;88.07;98445.16;8623591;33;20433;-73
2020/12/07 04:36:11;;;;;;;15.60;8.40;;;;;;;4.99;88.15;98443.38;8601036;33;20457;-73
2020/12/07 04:41:14;;;;;;;12.50;6.28;;;;;;;4.71;87.99;98445.41;8599238;33;20128;-72
2020/12/07 04:46:17;;;;;;;15.48;7.65;;;;;;;4.59;87.78;98448.97;8598732;33;20151;-73
2020/12/07 04:51:21;;;;;;;19.03;8.87;;;;;;;4.58;87.94;98453.44;8597725;33;20571;-72
2020/12/07 04:56:25;;;;;;;16.00;7.67;;;;;;;4.56;87.95;98454.50;8597288;33;20315;-73
2020/12/07 05:01:27;;;;;;;16.63;8.40;;;;;;;4.57;87.88;98453.53;8597939;33;20171;-73
2020/12/07 05:06:31;;;;;;;14.03;7.77;;;;;;;4.58;88.16;98431.41;8598993;33;20511;-73
2020/12/07 05:11:34;;;;;;;9.63;6.13;;;;;;;4.33;87.20;98430.53;8630974;32;20402;-73
2020/12/07 05:16:36;;;;;;;9.07;5.30;;;;;;;4.12;87.65;98443.53;8655127;32;20200;-74
2020/12/07 05:21:39;;;;;;;7.60;5.20;;;;;;;4.13;87.14;98439.91;8653296;33;20150;-73
2020/12/07 05:26:44;;;;;;;7.37;4.67;;;;;;;4.11;87.07;98455.03;8653562;33;20471;-73
2020/12/07 05:31:50;;;;;;;10.17;5.17;;;;;;;4.03;87.17;98460.00;8653765;32;20443;-74
2020/12/07 05:36:56;;;;;;;6.10;3.67;;;;;;;4.08;87.12;98465.81;8655045;33;20420;-74
2020/12/07 05:42:01;;;;;;;6.77;4.37;;;;;;;4.05;86.96;98466.03;8653349;33;20166;-74
2020/12/07 05:47:06;;;;;;;8.73;4.47;;;;;;;3.91;87.34;98467.00;8658397;33;20591;-74
2020/12/07 05:52:09;;;;;;;7.73;5.30;;;;;;;3.99;87.20;98463.84;8659021;33;20422;-74
2020/12/07 05:57:19;;;;;;;7.60;4.17;;;;;;;3.95;87.73;98473.78;8658283;33;20264;-74
2020/12/07 06:02:23;;;;;;;6.13;4.53;;;;;;;3.73;87.54;98476.19;8656250;33;20203;-74
2020/12/07 06:07:29;;;;;;;5.47;4.40;;;;;;;3.71;87.33;98478.97;8654271;33;21190;-73
2020/12/07 06:12:39;;;;;;;6.00;4.10;;;;;;;3.74;86.92;98468.19;8654250;33;20419;-73
2020/12/07 06:17:48;;;;;;;7.53;4.80;;;;;;;3.82;87.04;98457.09;8626655;33;20887;-74
2020/12/07 06:23:01;;;;;;;7.40;4.70;;;;;;;3.83;86.92;98453.50;8648658;33;20503;-74
2020/12/07 06:28:05;;;;;;;6.77;4.27;;;;;;;3.67;87.09;98477.47;8623979;33;20430;-74
2020/12/07 06:33:09;;;;;;;10.17;5.43;;;;;;;3.70;87.00;98472.00;8650753;33;21974;-74
2020/12/07 06:38:13;;;;;;;11.00;6.13;;;;;;;3.64;86.99;98472.41;8650557;33;20446;-74
2020/12/07 06:43:21;;;;;;;10.53;6.07;;;;;;;3.74;87.12;98468.19;8653262;33;20170;-74
2020/12/07 06:48:25;;;;;;;10.90;5.77;;;;;;;3.80;86.85;98461.63;8652727;33;20168;-74
2020/12/07 06:53:44;;;;;;;11.17;6.87;;;;;;;3.82;86.93;98458.91;8653362;33;20182;-74
2020/12/07 06:58:48;;;;;;;9.87;6.53;;;;;;;3.85;86.57;98459.53;8659873;33;20211;-72
2020/12/07 07:03:51;;;;;;;13.80;7.63;;;;;;;3.92;86.88;98466.06;8659256;33;20417;-73
2020/12/07 07:08:54;;;;;;;10.27;6.30;;;;;;;3.86;86.97;98465.63;8661443;33;20180;-73
2020/12/07 07:13:57;;;;;;;12.73;7.13;;;;;;;4.00;87.16;98471.66;8659711;33;20135;-73
2020/12/07 07:18:59;;;;;;;13.80;8.17;;;;;;;4.06;87.01;98464.22;8658166;33;20146;-72
2020/12/07 07:24:02;;;;;;;14.17;8.77;;;;;;;4.15;86.77;98464.44;8659025;33;20443;-72
2020/12/07 07:29:20;;;;;;;13.10;8.03;;;;;;;4.00;86.83;98471.66;8658289;33;20474;-73
2020/12/07 07:34:22;;;;;;;11.30;7.50;;;;;;;4.15;86.93;98463.59;8659656;33;20413;-72
2020/12/07 07:39:24;;;;;;;13.13;7.83;;;;;;;4.09;86.90;98475.44;8659457;33;20143;-72
2020/12/07 07:44:27;;;;;;;12.13;7.30;;;;;;;4.10;86.79;98492.97;8664657;33;20682;-73
2020/12/07 07:49:49;;;;;;;11.80;7.57;;;;;;;4.12;87.07;98496.38;8661721;33;20426;-74
2020/12/07 08:16:18;;;;;;;15.57;8.00;;;;;;;4.30;86.62;98530.38;8678513;33;20525;-72
2020/12/07 08:21:31;;;;;;;11.80;6.53;;;;;;;4.32;86.46;98534.59;8662116;33;20645;-72
2020/12/07 08:26:46;;;;;;;15.07;8.50;;;;;;;4.30;87.14;98544.44;8658399;33;20181;-72
2020/12/07 08:31:49;;;;;;;15.87;8.37;;;;;;;4.39;86.90;98551.75;8658893;33;20185;-72
2020/12/07 08:36:51;;;;;;;17.47;9.17;;;;;;;4.41;86.62;98539.22;8656944;33;20246;-72
2020/12/07 08:41:57;;;;;;;14.47;7.90;;;;;;;4.52;86.55;98548.22;8659968;33;20403;-72
2020/12/07 08:47:00;;;;;;;15.73;8.97;;;;;;;4.53;86.75;98552.56;8662161;33;20938;-73
2020/12/07 08:52:03;;;;;;;18.53;11.10;;;;;;;4.57;86.75;98569.88;8660924;33;20415;-73
2020/12/07 08:57:05;;;;;;;21.80;10.60;;;;;;;4.61;86.64;98577.50;8670656;33;20516;-73
2020/12/07 09:02:09;;;;;;;23.63;10.80;;;;;;;4.76;86.59;98582.66;8672323;33;20602;-73
2020/12/07 09:07:11;;;;;;;22.30;12.57;;;;;;;4.70;87.00;98597.16;8662928;33;20402;-73
2020/12/07 09:12:13;;;;;;;26.30;11.63;;;;;;;4.76;86.75;98609.09;8666534;33;20416;-73
2020/12/07 09:17:16;;;;;;;25.55;10.85;;;;;;;4.88;86.26;98609.09;8677240;33;20768;-73
2020/12/07 09:22:18;;;;;;;26.08;11.23;;;;;;;4.87;86.78;98599.44;8665580;33;20368;-74
2020/12/07 09:27:20;;;;;;;23.45;11.48;;;;;;;4.79;86.69;98595.66;8667178;33;20182;-75
2020/12/07 09:32:23;;;;;;;23.77;11.97;;;;;;;4.70;86.86;98615.69;8663230;33;20418;-73
2020/12/07 09:37:26;;;;;;;29.27;13.10;;;;;;;4.78;86.80;98621.28;8657570;33;20504;-73
2020/12/07 09:42:28;;;;;;;24.35;12.23;;;;;;;4.93;86.66;98631.72;8658089;33;22117;-73
2020/12/07 09:47:35;;;;;;;20.35;9.68;;;;;;;4.87;86.33;98649.72;8639113;33;20657;-73
2020/12/07 09:52:37;;;;;;;25.43;13.43;;;;;;;5.00;86.82;98648.84;8667657;33;20836;-74
2020/12/07 09:57:39;;;;;;;26.25;12.68;;;;;;;4.92;86.38;98657.34;8674974;33;20193;-72
2020/12/07 10:02:42;;;;;;;26.47;13.73;;;;;;;4.96;86.43;98663.25;8649381;33;21015;-72
2020/12/07 10:07:45;;;;;;;20.87;11.40;;;;;;;5.05;86.00;98660.81;8675663;33;21239;-75
2020/12/07 10:12:47;;;;;;;20.58;11.43;;;;;;;4.83;86.18;98658.84;8674452;33;20856;-74
2020/12/07 10:17:50;;;;;;;20.23;10.60;;;;;;;4.89;86.81;98655.75;8674537;33;20545;-74
2020/12/07 10:22:52;;;;;;;12.33;7.53;;;;;;;4.84;86.13;98659.69;8673852;33;20698;-74
2020/12/07 10:27:55;;;;;;;16.00;9.00;;;;;;;4.99;86.12;98655.09;8674301;33;20492;-73
2020/12/07 10:32:58;;;;;;;16.40;9.93;;;;;;;4.85;86.22;98662.22;8674419;33;20485;-74
2020/12/07 10:38:00;;;;;;;14.73;9.40;;;;;;;5.01;86.02;98675.19;8653542;33;20446;-74
2020/12/07 10:43:02;;;;;;;16.80;9.37;;;;;;;4.98;85.81;98685.16;8657587;33;20196;-74
2020/12/07 10:48:05;;;;;;;18.63;9.77;;;;;;;4.97;85.44;98696.72;8680747;33;20178;-73
2020/12/07 10:53:07;;;;;;;17.93;8.60;;;;;;;5.02;85.52;98694.56;8674748;33;20613;-72
2020/12/07 10:58:14;;;;;;;17.93;9.23;;;;;;;4.93;85.63;98689.94;8674053;33;20430;-72
2020/12/07 11:03:17;;;;;;;17.93;9.53;;;;;;;4.94;85.56;98688.97;8673516;33;20412;-72
2020/12/07 11:08:32;;;;;;;16.75;10.00;;;;;;;5.07;85.47;98698.59;8678240;33;20163;-72
2020/12/07 11:13:35;;;;;;;17.05;10.27;;;;;;;5.16;85.47;98706.84;8678879;33;21989;-71
2020/12/07 11:18:38;;;;;;;10.10;7.13;;;;;;;4.80;84.93;98717.25;8679072;33;20178;-72
2020/12/07 11:23:42;;;;;;;15.83;9.33;;;;;;;4.97;85.19;98712.59;8679307;33;20924;-74
2020/12/07 11:28:45;;;;;;;14.50;7.73;;;;;;;4.94;84.68;98713.66;8675336;33;20423;-71
2020/12/07 11:33:48;;;;;;;19.83;11.05;;;;;;;5.01;84.92;98699.00;8675405;33;20421;-73
2020/12/07 11:38:57;;;;;;;15.02;7.75;;;;;;;5.20;84.02;98703.84;8677474;33;20331;-74
2020/12/07 11:44:09;;;;;;;12.32;6.43;;;;;;;5.10;83.18;98716.91;8675335;33;20461;-74
2020/12/07 11:49:12;;;;;;;12.23;8.80;;;;;;;5.27;83.18;98713.06;8684101;33;20408;-74
2020/12/07 11:54:14;;;;;;;11.68;7.60;;;;;;;5.26;83.57;98707.84;8670670;33;20485;-73
2020/12/07 11:59:16;;;;;;;8.05;5.60;;;;;;;5.02;83.17;98707.78;8668725;33;20182;-73
2020/12/07 12:04:19;;;;;;;9.50;5.57;;;;;;;5.06;83.43;98718.06;8679760;33;20177;-71
2020/12/07 12:09:21;;;;;;;13.00;7.00;;;;;;;5.14;83.46;98730.75;8679749;33;20811;-73
2020/12/07 12:14:24;;;;;;;8.77;5.83;;;;;;;5.19;83.77;98736.59;8679107;33;21979;-73
2020/12/07 12:19:27;;;;;;;14.17;8.30;;;;;;;5.34;83.33;98753.16;8665276;33;21734;-72
2020/12/07 12:24:29;;;;;;;7.90;5.47;;;;;;;5.32;83.52;98744.47;8663767;33;20468;-73
2020/12/07 12:29:35;;;;;;;11.02;7.28;;;;;;;5.28;83.03;98761.56;8662444;33;21215;-72
2020/12/07 12:34:40;;;;;;;12.57;7.05;;;;;;;5.30;83.35;98749.91;8663699;33;21964;-72
2020/12/07 12:39:42;;;;;;;13.38;8.07;;;;;;;5.50;83.42;98748.47;8662535;33;20509;-72
2020/12/07 12:44:44;;;;;;;11.20;6.30;;;;;;;5.45;82.85;98765.66;8662699;33;20794;-72
2020/12/07 12:49:47;;;;;;;9.80;6.10;;;;;;;5.64;82.93;98770.47;8661873;33;20980;-72
2020/12/07 12:54:49;;;;;;;10.73;6.85;;;;;;;5.58;82.69;98769.94;8663901;33;20238;-72
2020/12/07 12:59:52;;;;;;;8.40;4.78;;;;;;;5.33;83.55;98776.16;8675849;33;22005;-74
2020/12/07 13:04:55;;;;;;;9.40;6.25;;;;;;;5.43;83.18;98786.09;8677278;33;20417;-73
2020/12/07 13:09:57;;;;;;;10.20;5.95;;;;;;;5.50;82.88;98803.25;8677119;33;20420;-73
2020/12/07 13:14:59;;;;;;;6.63;3.20;;;;;;;5.51;82.59;98804.94;8676187;33;20142;-72
2020/12/07 13:20:05;;;;;;;12.03;7.40;;;;;;;5.60;82.99;98812.25;8677114;33;20138;-74
2020/12/07 13:25:10;;;;;;;9.02;6.35;;;;;;;5.62;82.29;98812.13;8679617;33;20527;-73
2020/12/07 13:30:14;;;;;;;11.70;7.07;;;;;;;5.81;82.29;98815.13;8674951;33;20280;-74
2020/12/07 13:35:17;;;;;;;8.98;5.22;;;;;;;5.52;81.98;98820.72;8668179;33;20480;-74
2020/12/07 13:40:19;;;;;;;8.23;5.47;;;;;;;5.65;82.13;98835.72;8658640;33;20184;-73
2020/12/07 13:45:21;;;;;;;11.48;7.18;;;;;;;5.72;81.92;98837.84;8656591;33;20838;-72
2020/12/07 13:50:25;;;;;;;10.63;6.30;;;;;;;5.83;82.00;98852.97;8655721;33;20445;-72
2020/12/07 13:55:28;;;;;;;10.73;7.03;;;;;;;5.85;82.44;98859.03;8653646;33;20565;-73
2020/12/07 14:00:30;;;;;;;10.80;6.43;;;;;;;5.53;81.95;98858.66;8655682;33;20138;-73
2020/12/07 14:05:33;;;;;;;10.85;5.95;;;;;;;5.81;81.81;98868.13;8658123;33;20444;-72
2020/12/07 14:10:38;;;;;;;7.75;4.63;;;;;;;5.88;82.05;98873.88;8656636;33;20543;-72
2020/12/07 14:15:40;;;;;;;8.10;5.15;;;;;;;5.67;81.44;98887.66;8629098;33;20185;-72
2020/12/07 14:20:54;;;;;;;9.25;5.85;;;;;;;5.72;81.82;98876.75;8653422;33;20583;-72
2020/12/07 14:26:10;;;;;;;9.25;4.97;;;;;;;5.84;81.32;98891.78;8653749;33;20934;-72
2020/12/07 14:41:55;;;;;;;6.97;4.05;;;;;;;5.76;80.89;98918.00;8649529;33;20906;-72
2020/12/07 14:47:01;;;;;;;6.57;4.55;;;;;;;5.62;81.24;98918.94;8648209;33;20135;-72
2020/12/07 14:52:08;;;;;;;7.78;4.47;;;;;;;5.62;81.69;98923.38;8648696;33;20436;-73
2020/12/07 14:57:26;;;;;;;7.43;4.72;;;;;;;5.63;81.74;98928.59;8651777;33;20154;-73
2020/12/07 15:02:54;;;;;;;8.77;4.43;;;;;;;5.63;81.74;98935.69;8627174;33;20216;-73
2020/12/07 15:18:45;;;;;;;7.20;4.88;;;;;;;5.78;81.47;98977.00;8653206;33;20212;-73
2020/12/07 15:23:49;;;;;;;8.05;6.05;;;;;;;5.81;81.61;98968.84;8652841;33;20480;-73
2020/12/07 15:28:51;;;;;;;6.43;4.38;;;;;;;5.68;81.77;98971.53;8652235;33;20484;-73
2020/12/07 15:33:53;;;;;;;7.25;5.05;;;;;;;5.83;81.05;98989.94;8655092;33;20575;-73
2020/12/07 15:39:00;;;;;;;8.93;5.40;;;;;;;5.79;80.98;98998.13;8657559;33;20411;-73
2020/12/07 15:44:02;;;;;;;5.60;4.20;;;;;;;5.78;81.88;98998.22;8653469;33;20353;-73
2020/12/07 15:49:07;;;;;;;9.75;5.97;;;;;;;5.73;81.82;99003.84;8653512;33;20186;-74
2020/12/07 15:54:10;;;;;;;9.98;6.20;;;;;;;5.73;81.89;99002.97;8652567;33;20498;-73
2020/12/07 15:59:12;;;;;;;7.47;4.80;;;;;;;5.67;81.91;99019.31;8658506;33;20417;-73
2020/12/07 16:04:14;;;;;;;7.53;5.18;;;;;;;5.71;82.02;99042.84;8655945;32;20862;-73
2020/12/07 16:09:17;;;;;;;7.93;5.73;;;;;;;5.71;81.98;99049.97;8657282;32;20169;-74
2020/12/07 16:14:20;;;;;;;9.55;5.75;;;;;;;5.74;81.72;99055.88;8655877;32;20494;-72
2020/12/07 16:19:22;;;;;;;10.98;7.20;;;;;;;5.68;81.34;99056.31;8655228;32;20566;-74
2020/12/07 16:24:25;;;;;;;9.75;5.95;;;;;;;5.68;81.08;99060.78;8631406;32;20198;-73
2020/12/07 16:29:27;;;;;;;9.43;5.68;;;;;;;5.88;81.05;99062.06;8596234;33;20147;-74
2020/12/07 16:34:30;;;;;;;10.75;5.93;;;;;;;5.91;81.22;99065.31;8590736;33;21205;-72
2020/12/07 16:39:33;;;;;;;15.48;6.90;;;;;;;5.90;81.34;99076.91;8585253;33;20492;-74
2020/12/07 16:44:35;;;;;;;13.05;7.22;;;;;;;5.96;81.33;99081.81;8584830;33;20482;-72
2020/12/07 16:49:37;;;;;;;12.88;7.00;;;;;;;6.01;81.29;99079.69;8586749;33;20159;-73
2020/12/07 16:54:41;;;;;;;12.55;7.65;;;;;;;6.04;81.38;99083.94;8586787;33;20983;-72
2020/12/07 16:59:43;;;;;;;10.85;6.57;;;;;;;6.06;80.85;99078.50;8588141;33;20427;-72
2020/12/07 17:04:45;;;;;;;9.65;5.82;;;;;;;6.09;81.01;99087.13;8590645;33;20456;-75
2020/12/07 17:09:48;;;;;;;10.23;5.55;;;;;;;6.11;81.08;99079.88;8603334;32;20193;-71
2020/12/07 17:15:00;;;;;;;9.35;6.10;;;;;;;6.09;81.02;99094.19;8649621;32;20313;-72
2020/12/07 17:20:03;;;;;;;9.55;6.90;;;;;;;6.09;80.82;99103.03;8647241;33;20428;-72
2020/12/07 17:25:07;;;;;;;10.18;6.22;;;;;;;6.10;81.18;99104.72;8646458;33;20139;-72
2020/12/07 17:30:11;;;;;;;14.45;8.57;;;;;;;6.06;81.33;99112.97;8647757;33;20185;-74
2020/12/07 17:35:13;;;;;;;22.23;11.80;;;;;;;6.06;81.34;99127.13;8659167;33;20179;-74
2020/12/07 17:40:16;;;;;;;17.42;10.13;;;;;;;6.03;81.39;99132.59;8657499;33;20150;-73
2020/12/07 17:45:19;;;;;;;19.05;12.13;;;;;;;6.04;81.29;99138.78;8658252;33;20271;-73
2020/12/07 17:50:22;;;;;;;16.70;10.05;;;;;;;6.03;81.40;99139.72;8663767;33;20435;-74
2020/12/07 17:55:25;;;;;;;16.48;9.85;;;;;;;5.98;81.13;99148.84;8673070;33;20734;-74
2020/12/07 18:00:27;;;;;;;10.73;7.95;;;;;;;5.85;81.09;99141.78;8661485;33;20130;-74
2020/12/07 18:05:29;;;;;;;12.70;7.82;;;;;;;5.71;81.34;99150.66;8624790;33;21421;-74
2020/12/07 18:10:32;;;;;;;9.50;6.13;;;;;;;5.60;81.12;99143.41;8661329;33;20165;-72
2020/12/07 18:15:34;;;;;;;8.68;5.25;;;;;;;5.54;80.88;99143.81;8657538;33;20232;-72
2020/12/07 18:20:37;;;;;;;6.90;5.25;;;;;;;5.49;80.73;99148.56;8659396;33;20403;-74
2020/12/07 18:25:40;;;;;;;13.85;8.95;;;;;;;5.42;80.92;99150.75;8663108;33;20425;-72
2020/12/07 18:30:42;;;;;;;21.38;12.07;;;;;;;5.32;81.02;99154.94;8666818;33;20135;-72
2020/12/07 18:35:44;;;;;;;17.52;10.07;;;;;;;5.31;81.31;99159.41;8660284;33;20238;-74
2020/12/07 18:40:48;;;;;;;11.93;7.40;;;;;;;5.37;81.72;99159.94;8629416;33;20496;-74
2020/12/07 18:45:50;;;;;;;10.93;6.97;;;;;;;5.41;81.96;99164.97;8653890;33;20396;-73
2020/12/07 18:50:52;;;;;;;11.38;7.78;;;;;;;5.46;81.67;99170.81;8655291;33;20886;-73
2020/12/07 18:55:55;;;;;;;19.13;8.90;;;;;;;5.53;81.38;99181.84;8660365;33;20189;-74
2020/12/07 19:00:57;;;;;;;12.50;7.55;;;;;;;5.49;81.62;99172.41;8659221;33;20150;-74
2020/12/07 19:05:59;;;;;;;11.23;7.43;;;;;;;5.51;81.32;99168.72;8661692;33;20186;-74
2020/12/07 19:11:03;;;;;;;10.27;6.90;;;;;;;5.62;80.99;99173.28;8665851;33;21542;-74
2020/12/07 19:16:05;;;;;;;9.88;6.13;;;;;;;5.53;80.41;99177.38;8677809;33;21096;-74
2020/12/07 19:21:08;;;;;;;8.45;5.20;;;;;;;5.62;80.30;99185.69;8671067;33;20435;-74
2020/12/07 19:26:11;;;;;;;8.50;5.78;;;;;;;5.69;80.29;99187.00;8681710;33;20437;-74
2020/12/07 19:31:13;;;;;;;12.50;7.30;;;;;;;5.73;80.60;99185.81;8680308;33;20361;-74
2020/12/07 19:36:16;;;;;;;10.43;6.07;;;;;;;5.61;80.25;99189.28;8681219;33;20650;-75
2020/12/07 19:41:19;;;;;;;9.25;6.53;;;;;;;5.44;80.36;99179.81;8670370;33;20146;-74
2020/12/07 19:46:21;;;;;;;26.67;12.80;;;;;;;5.28;80.79;99178.13;8650090;33;20196;-74
2020/12/07 19:51:24;;;;;;;19.70;12.05;;;;;;;5.18;81.21;99186.75;8685881;32;21265;-73
2020/12/07 19:56:27;;;;;;;16.98;10.52;;;;;;;5.09;81.51;99185.56;8685387;33;20425;-74
2020/12/07 20:01:29;;;;;;;17.33;10.82;;;;;;;5.05;82.00;99182.25;8683440;33;20414;-73
2020/12/07 20:06:31;;;;;;;16.10;11.35;;;;;;;5.01;81.64;99193.13;8681679;33;20498;-74
2020/12/07 20:11:34;;;;;;;16.57;10.07;;;;;;;4.94;82.00;99186.50;8660147;33;20147;-74
2020/12/07 20:16:37;;;;;;;15.38;9.40;;;;;;;4.95;81.83;99198.81;8684951;33;20186;-74
2020/12/07 20:21:40;;;;;;;10.70;7.50;;;;;;;4.94;81.34;99194.44;8686317;33;20421;-74
2020/12/07 20:26:43;;;;;;;10.68;6.63;;;;;;;4.95;81.25;99202.31;8660913;33;20526;-74
2020/12/07 20:31:45;;;;;;;10.85;6.70;;;;;;;4.95;80.63;99194.38;8687992;33;20832;-74
2020/12/07 20:36:48;;;;;;;9.80;6.85;;;;;;;5.02;80.67;99205.41;8681153;33;20364;-74
2020/12/07 20:41:51;;;;;;;11.13;6.32;;;;;;;5.02;79.84;99205.41;8699519;32;20406;-74
2020/12/07 20:47:04;;;;;;;16.15;9.50;;;;;;;4.98;79.63;99214.50;8673052;33;20607;-74
2020/12/07 20:52:07;;;;;;;13.57;9.52;;;;;;;4.84;79.92;99210.06;8667516;33;20518;-74
2020/12/07 20:57:10;;;;;;;13.18;9.18;;;;;;;4.55;80.24;99220.66;8667307;33;20431;-74
2020/12/07 21:02:12;;;;;;;11.90;8.02;;;;;;;4.37;80.77;99219.94;8674043;33;20258;-74
2020/12/07 21:07:14;;;;;;;14.38;8.07;;;;;;;4.23;81.27;99212.84;8674833;33;20216;-72
2020/12/07 21:12:17;;;;;;;13.97;9.27;;;;;;;4.13;81.40;99214.31;8674137;33;20196;-73
2020/12/07 21:17:20;;;;;;;14.77;8.18;;;;;;;4.13;81.59;99213.47;8674390;33;20406;-73
2020/12/07 21:22:22;;;;;;;15.73;9.63;;;;;;;4.17;81.99;99215.00;8685376;33;20912;-73
2020/12/07 21:27:28;;;;;;;19.90;10.57;;;;;;;4.17;82.67;99218.50;8704614;32;20149;-73
2020/12/07 21:32:30;;;;;;;17.93;9.87;;;;;;;4.25;82.34;99223.34;8710713;32;20189;-72
2020/12/07 21:37:33;;;;;;;16.33;10.63;;;;;;;4.32;82.39;99224.66;8736744;32;20533;-73
2020/12/07 21:42:36;;;;;;;15.43;8.80;;;;;;;4.36;81.63;99230.59;8735207;32;20402;-74
2020/12/07 21:47:39;;;;;;;15.15;9.13;;;;;;;4.32;82.00;99243.16;8734039;32;21675;-74
2020/12/07 21:52:42;;;;;;;16.73;9.13;;;;;;;4.34;81.63;99238.66;8733033;32;21436;-73
2020/12/07 21:57:46;;;;;;;15.90;8.80;;;;;;;4.34;81.24;99236.00;8734732;32;21928;-74
2020/12/07 22:02:48;;;;;;;13.70;8.33;;;;;;;4.28;81.17;99241.66;8708969;32;20621;-74
2020/12/07 22:07:50;;;;;;;14.77;8.30;;;;;;;4.19;81.30;99244.81;8737503;32;20758;-74
2020/12/07 22:12:54;;;;;;;16.13;9.43;;;;;;;4.15;81.38;99245.97;8741070;32;20213;-74
2020/12/07 22:17:56;;;;;;;21.20;10.43;;;;;;;4.11;81.41;99244.44;8741534;32;21535;-73
2020/12/07 22:22:59;;;;;;;17.87;9.40;;;;;;;4.04;81.35;99254.50;8740876;32;20415;-74
2020/12/07 22:28:02;;;;;;;22.30;9.87;;;;;;;3.94;81.70;99250.69;8731806;32;20248;-74
2020/12/07 22:33:05;;;;;;;23.33;11.50;;;;;;;3.90;82.05;99257.13;8732501;32;20412;-74
2020/12/07 22:38:07;;;;;;;21.90;11.93;;;;;;;3.96;82.08;99251.47;8733857;32;20412;-74
2020/12/07 22:43:10;;;;;;;23.37;11.20;;;;;;;3.90;82.40;99257.97;8729233;32;20645;-74
2020/12/07 22:48:13;;;;;;;25.70;13.30;;;;;;;3.89;82.72;99261.53;8720291;32;20422;-73
2020/12/07 22:53:15;;;;;;;24.00;11.87;;;;;;;3.89;83.04;99260.66;8719173;32;20412;-73
2020/12/07 22:58:18;;;;;;;23.97;12.10;;;;;;;3.91;82.47;99258.81;8718873;32;20138;-75
2020/12/07 23:03:20;;;;;;;24.50;12.10;;;;;;;3.89;82.52;99256.22;8718911;32;20771;-75
2020/12/07 23:08:24;;;;;;;21.50;11.00;;;;;;;3.76;82.90;99265.81;8719920;32;20773;-75
2020/12/07 23:13:28;;;;;;;23.87;10.90;;;;;;;3.67;83.05;99266.31;8730376;32;20410;-75
2020/12/07 23:18:31;;;;;;;21.90;10.55;;;;;;;3.62;82.97;99273.66;8731483;32;20892;-73
2020/12/07 23:23:35;;;;;;;21.87;11.40;;;;;;;3.60;83.26;99273.75;8731408;32;20177;-74
2020/12/07 23:28:38;;;;;;;24.17;11.80;;;;;;;3.63;83.78;99263.00;8731652;32;20938;-73
2020/12/07 23:33:40;;;;;;;29.40;14.10;;;;;;;3.70;83.40;99256.47;8730181;32;20413;-73
2020/12/07 23:38:53;;;;;;;30.33;13.80;;;;;;;3.70;82.94;99268.78;8716090;32;20660;-74
2020/12/07 23:43:56;;;;;;;27.48;13.52;;;;;;;3.64;83.04;99262.06;8737833;32;20593;-72
2020/12/07 23:48:59;;;;;;;29.00;13.57;;;;;;;3.59;83.17;99250.91;8736506;32;20185;-72
2020/12/07 23:54:01;;;;;;;30.17;13.63;;;;;;;3.56;83.61;99261.63;8736847;32;20220;-75
2020/12/07 23:59:05;;;;;;;26.03;12.93;;;;;;;3.62;83.39;99258.69;8725158;32;20543;-73
